Time;durP1;ratioP1;P1;durP2;ratioP2;P2;SDS_P1;SDS_P2;PMS_P1;PMS_P2;Temp;Humidity;BMP_temperature;BMP_pressure;BME280_temperature;BME280_humidity;BME280_pressure;Samples;Min_cycle;Max_cycle;Signal;HPM_P1;HPM_P2
2023/09/27 00:00:10;;;;;;;17.52;16.02;;;14.10;91.00;;;;;;5070484;28;20111;-47
2023/09/27 00:02:38;;;;;;;20.58;18.67;;;14.10;91.00;;;;;;5053699;28;20116;-46
2023/09/27 00:05:07;;;;;;;18.15;16.45;;;14.10;91.00;;;;;;5036013;28;20078;-51
2023/09/27 00:07:37;;;;;;;19.80;17.90;;;14.00;90.90;;;;;;5052808;28;20106;-45
2023/09/27 00:10:05;;;;;;;19.02;17.42;;;14.00;90.90;;;;;;5035794;28;20032;-49
2023/09/27 00:12:33;;;;;;;20.33;17.58;;;14.10;90.90;;;;;;5053383;28;20100;-45
2023/09/27 00:15:05;;;;;;;28.70;17.95;;;14.00;90.80;;;;;;5056786;28;20487;-48
2023/09/27 00:17:37;;;;;;;19.70;17.80;;;14.00;90.80;;;;;;5072802;28;20026;-46
2023/09/27 00:20:06;;;;;;;20.95;18.92;;;13.90;90.70;;;;;;5061351;28;20108;-46
2023/09/27 00:22:34;;;;;;;20.30;18.17;;;14.00;90.70;;;;;;5053234;28;20040;-48
2023/09/27 00:25:04;;;;;;;19.77;17.98;;;13.90;90.70;;;;;;5055422;28;20153;-47
2023/09/27 00:27:33;;;;;;;18.88;17.08;;;13.90;90.60;;;;;;5068194;28;20083;-46
2023/09/27 00:30:00;;;;;;;19.58;17.67;;;13.90;90.60;;;;;;5037295;28;20045;-46
2023/09/27 00:32:31;;;;;;;20.95;18.83;;;13.90;90.70;;;;;;5052836;28;20060;-45
2023/09/27 00:34:59;;;;;;;21.17;19.10;;;13.90;90.70;;;;;;5054452;28;20460;-45
2023/09/27 00:37:33;;;;;;;21.48;19.52;;;13.80;90.70;;;;;;5052796;28;20112;-48
2023/09/27 00:40:00;;;;;;;21.33;19.33;;;13.70;90.70;;;;;;5052766;28;20029;-46
2023/09/27 00:42:30;;;;;;;41.63;20.30;;;13.70;90.80;;;;;;5034632;28;20044;-48
2023/09/27 00:44:57;;;;;;;22.05;19.65;;;13.70;90.90;;;;;;5062322;28;20028;-45
2023/09/27 00:47:25;;;;;;;20.33;18.48;;;13.70;91.00;;;;;;5072502;28;20025;-46
2023/09/27 00:49:54;;;;;;;19.25;17.50;;;13.70;91.00;;;;;;5062037;28;20040;-45
2023/09/27 00:52:22;;;;;;;22.52;20.55;;;13.70;91.10;;;;;;5071993;28;20104;-44
2023/09/27 00:54:54;;;;;;;21.13;19.23;;;13.70;91.20;;;;;;5072573;28;20384;-44
2023/09/27 00:57:25;;;;;;;21.75;19.75;;;13.70;91.20;;;;;;5072420;28;20056;-49
2023/09/27 00:59:53;;;;;;;23.05;21.02;;;13.70;91.20;;;;;;5071780;28;20024;-45
2023/09/27 01:02:20;;;;;;;23.05;20.95;;;13.70;91.20;;;;;;5054760;28;20103;-46
2023/09/27 01:04:48;;;;;;;23.23;21.13;;;13.70;91.20;;;;;;5073379;28;20369;-45
2023/09/27 01:07:15;;;;;;;23.98;21.75;;;13.70;91.20;;;;;;5074707;28;20028;-46
2023/09/27 01:09:46;;;;;;;24.02;21.80;;;13.70;91.10;;;;;;5021741;28;20020;-45
2023/09/27 01:12:14;;;;;;;23.73;21.40;;;13.70;91.10;;;;;;5040068;28;20029;-45
2023/09/27 01:14:40;;;;;;;24.98;22.63;;;13.80;91.20;;;;;;5057862;28;20024;-45
2023/09/27 01:17:10;;;;;;;23.05;20.85;;;13.80;91.10;;;;;;5075420;28;20395;-44
2023/09/27 01:19:38;;;;;;;23.42;21.20;;;13.80;91.10;;;;;;5076006;28;20036;-46
2023/09/27 01:22:15;;;;;;;24.33;22.10;;;13.80;91.10;;;;;;5058375;28;20081;-48
2023/09/27 01:24:44;;;;;;;24.95;22.60;;;13.80;91.10;;;;;;5076101;28;20021;-48
2023/09/27 01:27:24;;;;;;;24.00;21.63;;;13.80;91.10;;;;;;5041837;28;20362;-45
2023/09/27 01:29:53;;;;;;;25.02;22.73;;;13.80;91.10;;;;;;5076039;28;20032;-48
2023/09/27 01:32:20;;;;;;;25.55;22.88;;;13.80;91.00;;;;;;5054561;28;20127;-45
2023/09/27 01:34:49;;;;;;;24.23;21.92;;;13.80;91.10;;;;;;5059487;28;20357;-52
2023/09/27 01:37:17;;;;;;;25.33;22.88;;;13.80;91.10;;;;;;5075799;28;20366;-46
2023/09/27 01:39:43;;;;;;;24.83;22.45;;;13.80;91.00;;;;;;5055790;28;20032;-48
2023/09/27 01:42:11;;;;;;;27.25;24.60;;;13.70;91.00;;;;;;5040629;28;20136;-48
2023/09/27 01:44:38;;;;;;;26.50;23.90;;;13.70;91.10;;;;;;5017799;28;20030;-46
2023/09/27 01:47:05;;;;;;;26.85;24.45;;;13.70;91.10;;;;;;5035947;28;20024;-45
2023/09/27 01:49:31;;;;;;;28.17;25.55;;;13.70;91.10;;;;;;5035952;28;20412;-46
2023/09/27 01:51:59;;;;;;;28.60;25.73;;;13.70;91.10;;;;;;5017911;28;20112;-47
2023/09/27 01:54:28;;;;;;;26.83;24.08;;;13.70;91.10;;;;;;5035752;28;20037;-49
2023/09/27 01:56:56;;;;;;;27.40;24.75;;;13.70;91.10;;;;;;5035885;28;20719;-48
2023/09/27 01:59:24;;;;;;;29.75;26.80;;;13.70;91.00;;;;;;5032925;28;20362;-44
2023/09/27 02:01:51;;;;;;;27.95;25.23;;;13.70;91.10;;;;;;5054177;28;20029;-46
2023/09/27 02:04:19;;;;;;;27.73;25.13;;;13.70;91.10;;;;;;5054578;28;20506;-47
2023/09/27 02:06:46;;;;;;;29.20;26.42;;;13.70;91.10;;;;;;5026921;28;20045;-45
2023/09/27 02:09:14;;;;;;;29.33;26.30;;;13.70;91.10;;;;;;5037269;28;20037;-45
2023/09/27 02:11:40;;;;;;;28.73;25.85;;;13.70;91.10;;;;;;5046881;28;20044;-46
2023/09/27 02:14:07;;;;;;;34.50;30.70;;;13.70;91.10;;;;;;5041732;28;20038;-46
2023/09/27 02:16:35;;;;;;;29.67;26.77;;;13.70;91.10;;;;;;5034534;28;20443;-48
2023/09/27 02:19:04;;;;;;;30.02;27.17;;;13.70;91.10;;;;;;5036337;28;20027;-48
2023/09/27 02:21:32;;;;;;;28.08;25.58;;;13.70;91.10;;;;;;5054701;28;20040;-45
2023/09/27 02:23:58;;;;;;;32.22;29.27;;;13.70;91.20;;;;;;5054992;28;20218;-44
2023/09/27 02:26:28;;;;;;;31.42;28.50;;;13.70;91.10;;;;;;5054795;28;20032;-44
2023/09/27 02:28:53;;;;;;;;;;;13.70;91.10;;;;;;5052645;28;20028;-43
2023/09/27 02:31:20;;;;;;;30.05;27.25;;;13.70;91.10;;;;;;5054572;28;19983;-44
2023/09/27 02:33:48;;;;;;;32.08;28.67;;;13.70;91.20;;;;;;5054645;28;20130;-46
2023/09/27 02:36:14;;;;;;;31.90;28.90;;;13.60;91.20;;;;;;5054334;28;20785;-46
2023/09/27 02:38:42;;;;;;;34.25;30.55;;;13.70;91.20;;;;;;5035715;28;20034;-44
2023/09/27 02:41:09;;;;;;;32.08;29.15;;;13.60;91.20;;;;;;5017655;28;20044;-45
2023/09/27 02:43:37;;;;;;;32.35;29.23;;;13.60;91.20;;;;;;5034576;28;20029;-46
2023/09/27 02:46:05;;;;;;;31.98;29.08;;;13.60;91.30;;;;;;5035050;28;20064;-45
2023/09/27 02:48:31;;;;;;;33.42;30.42;;;13.70;91.30;;;;;;5034473;28;20025;-47
2023/09/27 02:50:58;;;;;;;34.75;30.98;;;13.60;91.20;;;;;;5051127;28;20108;-44
2023/09/27 02:53:28;;;;;;;34.53;30.95;;;13.70;91.30;;;;;;5054513;28;20071;-48
2023/09/27 02:55:58;;;;;;;35.00;31.50;;;13.60;91.10;;;;;;5042728;28;20029;-47
2023/09/27 02:58:27;;;;;;;35.70;32.28;;;13.60;91.10;;;;;;5034338;28;20112;-46
2023/09/27 03:00:53;;;;;;;34.30;30.70;;;13.60;91.10;;;;;;5049856;28;20502;-43
2023/09/27 03:03:23;;;;;;;36.55;33.05;;;13.60;91.20;;;;;;5054120;28;20447;-47
2023/09/27 03:05:50;;;;;;;;;;;13.60;91.30;;;;;;5042486;28;20048;-49
2023/09/27 03:08:17;;;;;;;32.70;29.58;;;13.60;91.20;;;;;;5034048;28;19909;-46
2023/09/27 03:10:45;;;;;;;35.42;32.10;;;13.60;91.20;;;;;;5036159;28;20340;-45
2023/09/27 03:13:12;;;;;;;34.55;31.08;;;13.60;91.20;;;;;;5048581;28;20037;-45
2023/09/27 03:15:43;;;;;;;35.17;31.67;;;13.60;91.30;;;;;;5034208;28;20443;-43
2023/09/27 03:18:13;;;;;;;36.13;32.58;;;13.60;91.30;;;;;;5034338;28;20131;-44
2023/09/27 03:20:40;;;;;;;37.28;33.53;;;13.60;91.30;;;;;;5042102;28;20083;-45
2023/09/27 03:23:06;;;;;;;35.10;31.63;;;13.60;91.30;;;;;;5033738;28;20025;-44
2023/09/27 03:25:34;;;;;;;34.03;30.83;;;13.60;91.40;;;;;;5033977;28;20463;-44
2023/09/27 03:28:02;;;;;;;34.05;30.55;;;13.60;91.30;;;;;;5015039;28;20091;-46
2023/09/27 03:30:29;;;;;;;34.20;30.80;;;13.50;91.30;;;;;;5016650;28;20036;-46
2023/09/27 03:32:58;;;;;;;34.47;31.20;;;13.50;91.30;;;;;;5033753;28;20021;-45
2023/09/27 03:35:24;;;;;;;33.38;30.33;;;13.50;91.40;;;;;;5040002;28;20083;-46
2023/09/27 03:37:51;;;;;;;36.53;32.80;;;13.60;91.40;;;;;;5045993;28;20370;-46
2023/09/27 03:40:18;;;;;;;36.80;33.08;;;13.50;91.40;;;;;;5040501;28;20496;-46
2023/09/27 03:42:45;;;;;;;35.95;32.38;;;13.50;91.30;;;;;;5077861;28;20504;-44
2023/09/27 03:45:11;;;;;;;34.78;31.40;;;13.50;91.30;;;;;;5039277;28;20028;-44
2023/09/27 03:47:38;;;;;;;36.85;33.13;;;13.40;91.30;;;;;;5055480;28;20048;-43
2023/09/27 03:50:09;;;;;;;38.67;34.97;;;13.50;91.30;;;;;;5073715;28;20017;-43
2023/09/27 03:52:42;;;;;;;36.97;33.42;;;13.40;91.30;;;;;;5069421;28;20039;-48
2023/09/27 03:55:10;;;;;;;36.33;32.72;;;13.40;91.40;;;;;;5076085;28;20036;-44
2023/09/27 03:57:37;;;;;;;38.25;34.58;;;13.40;91.50;;;;;;5068363;28;20031;-46
2023/09/27 04:00:14;;;;;;;36.42;32.90;;;13.40;91.40;;;;;;5073075;28;20025;-46
2023/09/27 04:02:57;;;;;;;36.83;33.13;;;13.50;91.50;;;;;;5092260;28;20048;-43
2023/09/27 04:05:26;;;;;;;40.83;36.65;;;13.40;91.50;;;;;;5062139;28;20114;-45
2023/09/27 04:07:57;;;;;;;37.92;34.33;;;13.40;91.40;;;;;;5093071;28;20016;-44
2023/09/27 04:10:25;;;;;;;38.50;34.67;;;13.40;91.60;;;;;;5090207;28;20031;-45
2023/09/27 04:12:51;;;;;;;39.20;35.38;;;13.40;91.60;;;;;;5074769;28;20016;-45
2023/09/27 04:15:20;;;;;;;38.10;34.47;;;13.40;91.70;;;;;;5073202;28;20365;-43
2023/09/27 04:17:45;;;;;;;39.38;35.47;;;13.40;91.70;;;;;;5088340;28;20059;-44
2023/09/27 04:20:21;;;;;;;39.30;35.22;;;13.40;91.70;;;;;;5092726;28;20051;-44
2023/09/27 04:22:49;;;;;;;39.38;35.53;;;13.40;91.60;;;;;;5093244;28;20093;-47
2023/09/27 04:25:19;;;;;;;39.78;36.05;;;13.40;91.60;;;;;;5070841;28;20111;-46
2023/09/27 04:27:46;;;;;;;;;;;13.40;91.70;;;;;;5070324;28;20028;-44
2023/09/27 04:30:19;;;;;;;36.70;33.20;;;13.40;91.60;;;;;;5070843;28;20292;-43
2023/09/27 04:33:05;;;;;;;38.13;34.38;;;13.40;91.60;;;;;;5071075;28;20040;-45
2023/09/27 04:35:32;;;;;;;38.92;35.13;;;13.40;91.60;;;;;;5073056;28;20461;-47
2023/09/27 04:38:09;;;;;;;40.80;36.70;;;13.40;91.50;;;;;;5073080;28;20458;-44
2023/09/27 04:40:36;;;;;;;37.60;33.90;;;13.40;91.50;;;;;;5072059;28;20063;-44
2023/09/27 04:43:04;;;;;;;40.55;36.50;;;13.40;91.50;;;;;;5038946;28;20032;-44
2023/09/27 04:45:33;;;;;;;39.40;35.63;;;13.40;91.50;;;;;;5075153;28;20051;-44
2023/09/27 04:48:09;;;;;;;38.05;34.45;;;13.40;91.50;;;;;;5092581;28;20043;-46
2023/09/27 04:50:35;;;;;;;38.63;35.05;;;13.40;91.50;;;;;;5092085;28;20036;-43
2023/09/27 04:53:02;;;;;;;37.88;34.30;;;13.30;91.50;;;;;;5092661;28;20039;-45
2023/09/27 04:55:30;;;;;;;38.60;34.90;;;13.30;91.60;;;;;;5092250;28;20035;-44
2023/09/27 04:57:55;;;;;;;41.42;37.20;;;13.30;91.60;;;;;;5092499;28;20074;-43
2023/09/27 05:00:22;;;;;;;38.75;34.95;;;13.30;91.70;;;;;;5073299;28;20472;-47
2023/09/27 05:02:50;;;;;;;40.50;36.80;;;13.30;91.70;;;;;;5074222;28;20020;-48
2023/09/27 05:05:17;;;;;;;37.72;33.97;;;13.30;91.70;;;;;;5072387;28;20028;-45
2023/09/27 05:07:44;;;;;;;39.35;35.42;;;13.30;91.60;;;;;;5088901;28;20346;-46
2023/09/27 05:10:15;;;;;;;39.45;35.75;;;13.30;91.70;;;;;;5074676;28;20024;-44
2023/09/27 05:12:42;;;;;;;39.38;35.50;;;13.20;91.70;;;;;;5080193;28;20028;-48
2023/09/27 05:15:09;;;;;;;39.58;35.72;;;13.20;91.60;;;;;;5070002;28;20021;-44
2023/09/27 05:17:39;;;;;;;38.58;34.78;;;13.20;91.70;;;;;;5071947;28;20029;-44
2023/09/27 05:20:12;;;;;;;43.33;38.90;;;13.20;91.70;;;;;;5072120;28;20029;-42
2023/09/27 05:22:40;;;;;;;40.25;36.30;;;13.20;91.70;;;;;;5085991;28;20118;-45
2023/09/27 05:25:10;;;;;;;40.78;36.90;;;13.20;91.70;;;;;;5074581;28;20476;-48
2023/09/27 05:27:38;;;;;;;40.92;37.03;;;13.20;91.80;;;;;;5087182;28;20430;-42
2023/09/27 05:30:15;;;;;;;40.55;36.58;;;13.20;91.80;;;;;;5054404;28;20104;-44
2023/09/27 05:32:43;;;;;;;39.42;35.20;;;13.20;91.80;;;;;;5086390;28;20036;-47
2023/09/27 05:35:09;;;;;;;38.63;34.90;;;13.10;91.70;;;;;;5092289;28;20081;-43
2023/09/27 05:37:36;;;;;;;39.67;35.70;;;13.10;91.80;;;;;;5082402;28;20125;-44
2023/09/27 05:40:07;;;;;;;39.17;35.28;;;13.10;91.80;;;;;;5072016;28;20036;-44
2023/09/27 05:42:34;;;;;;;39.28;34.80;;;13.00;91.70;;;;;;5060160;28;20480;-44
2023/09/27 05:45:04;;;;;;;40.08;35.80;;;13.10;91.80;;;;;;5090135;28;20491;-43
2023/09/27 05:47:32;;;;;;;42.42;37.22;;;13.00;91.90;;;;;;5071964;28;20052;-44
2023/09/27 05:49:59;;;;;;;40.78;36.67;;;13.00;91.90;;;;;;5071983;28;20028;-45
2023/09/27 05:52:27;;;;;;;39.35;35.35;;;13.00;91.90;;;;;;5074441;28;20070;-44
2023/09/27 05:54:53;;;;;;;39.22;35.35;;;13.00;92.00;;;;;;5075652;28;20035;-45
2023/09/27 05:57:22;;;;;;;37.67;34.00;;;13.10;92.00;;;;;;5075479;28;20033;-46
2023/09/27 05:59:50;;;;;;;39.92;36.08;;;13.10;92.10;;;;;;5075185;28;20028;-45
2023/09/27 06:02:20;;;;;;;41.38;37.08;;;13.10;92.20;;;;;;5081959;28;20035;-44
2023/09/27 06:04:51;;;;;;;41.08;36.90;;;13.10;92.20;;;;;;5095696;28;20441;-42
2023/09/27 06:07:20;;;;;;;41.75;37.63;;;13.20;92.30;;;;;;5078494;28;20509;-42
2023/09/27 06:09:46;;;;;;;42.40;37.90;;;13.30;92.30;;;;;;5088271;28;20056;-44
2023/09/27 06:12:13;;;;;;;41.25;37.15;;;13.30;92.30;;;;;;5080946;28;20048;-45
2023/09/27 06:14:38;;;;;;;41.45;37.42;;;13.40;92.30;;;;;;5095384;28;20032;-46
2023/09/27 06:17:17;;;;;;;41.42;37.40;;;13.40;92.20;;;;;;5077730;28;20054;-44
2023/09/27 06:19:51;;;;;;;39.13;35.33;;;13.40;91.90;;;;;;5085759;28;20041;-42
2023/09/27 06:22:21;;;;;;;39.33;35.58;;;13.40;91.90;;;;;;5078055;28;20028;-44
2023/09/27 06:24:48;;;;;;;41.38;36.88;;;13.40;92.10;;;;;;5095429;28;20024;-47
2023/09/27 06:27:16;;;;;;;40.28;36.40;;;13.50;92.10;;;;;;5095148;28;20055;-48
2023/09/27 06:29:46;;;;;;;38.63;34.78;;;13.60;92.10;;;;;;5076539;28;20421;-47
2023/09/27 06:32:13;;;;;;;38.95;34.90;;;13.70;92.10;;;;;;5074958;28;20331;-48
2023/09/27 06:34:40;;;;;;;39.00;35.20;;;13.80;92.10;;;;;;5075288;28;20086;-43
2023/09/27 06:37:07;;;;;;;36.97;33.35;;;13.90;92.00;;;;;;5074944;28;20024;-44
2023/09/27 06:39:34;;;;;;;38.78;34.78;;;14.00;91.80;;;;;;5094493;28;20028;-45
2023/09/27 06:42:02;;;;;;;40.65;36.60;;;14.20;91.80;;;;;;5081976;28;20048;-49
2023/09/27 06:44:33;;;;;;;40.78;36.95;;;14.20;91.40;;;;;;5094753;28;20505;-44
2023/09/27 06:47:04;;;;;;;39.80;35.80;;;14.30;91.30;;;;;;5094821;28;20028;-43
2023/09/27 06:49:32;;;;;;;37.67;34.13;;;14.40;91.10;;;;;;5082583;28;20040;-45
2023/09/27 06:52:03;;;;;;;42.08;37.78;;;14.40;91.10;;;;;;5074344;28;20039;-45
2023/09/27 06:54:37;;;;;;;34.75;31.45;;;14.50;90.80;;;;;;5094124;28;20040;-44
2023/09/27 06:57:04;;;;;;;37.90;34.30;;;14.60;90.90;;;;;;5055883;28;20037;-48
2023/09/27 06:59:31;;;;;;;34.22;30.92;;;14.60;90.80;;;;;;5088074;28;20314;-45
2023/09/27 07:02:01;;;;;;;37.97;34.28;;;14.70;90.90;;;;;;5094554;28;20032;-45
2023/09/27 07:04:29;;;;;;;40.97;37.00;;;14.80;90.90;;;;;;5094329;28;20020;-49
2023/09/27 07:06:56;;;;;;;36.30;32.70;;;14.90;90.70;;;;;;5072670;28;20033;-48
2023/09/27 07:09:28;;;;;;;38.40;34.75;;;14.90;90.40;;;;;;5091075;28;20025;-48
2023/09/27 07:11:57;;;;;;;37.50;33.72;;;15.10;90.50;;;;;;5094504;28;20393;-47
2023/09/27 07:14:24;;;;;;;38.57;34.87;;;15.20;90.60;;;;;;5094384;28;20062;-48
2023/09/27 07:16:52;;;;;;;38.33;34.50;;;15.20;90.40;;;;;;5078245;28;20025;-48
2023/09/27 07:19:23;;;;;;;37.80;34.15;;;15.30;90.20;;;;;;5082692;28;20465;-48
2023/09/27 07:21:51;;;;;;;35.13;31.75;;;15.30;89.90;;;;;;5074142;28;20335;-45
2023/09/27 07:24:18;;;;;;;35.35;32.00;;;15.40;89.90;;;;;;5087626;28;20114;-46
2023/09/27 07:26:52;;;;;;;34.58;31.13;;;15.40;89.90;;;;;;5089921;28;20051;-48
2023/09/27 07:29:22;;;;;;;36.20;32.58;;;15.60;90.00;;;;;;5088957;28;20024;-49
2023/09/27 07:31:49;;;;;;;38.15;34.40;;;15.60;89.60;;;;;;5081113;28;20535;-49
2023/09/27 07:34:16;;;;;;;35.15;31.60;;;15.70;89.10;;;;;;5091500;28;20039;-46
2023/09/27 07:36:44;;;;;;;32.53;29.60;;;15.80;89.20;;;;;;5073845;28;20365;-51
2023/09/27 07:39:11;;;;;;;32.33;29.33;;;15.90;89.20;;;;;;5056836;28;20044;-48
2023/09/27 07:41:37;;;;;;;35.95;32.35;;;15.90;88.70;;;;;;5073598;28;20044;-49
2023/09/27 07:44:06;;;;;;;30.17;27.30;;;16.00;88.50;;;;;;5073494;28;20032;-46
2023/09/27 07:46:35;;;;;;;29.40;26.45;;;16.00;88.60;;;;;;5073517;28;20048;-47
2023/09/27 07:49:03;;;;;;;31.10;28.20;;;16.10;88.60;;;;;;5083241;28;20629;-46
2023/09/27 07:51:34;;;;;;;32.88;29.77;;;16.20;88.60;;;;;;5073545;28;20020;-52
2023/09/27 07:54:03;;;;;;;29.85;27.10;;;16.30;88.70;;;;;;5092508;28;20031;-46
2023/09/27 07:56:39;;;;;;;29.80;27.00;;;16.30;88.10;;;;;;5076997;28;20048;-49
2023/09/27 07:59:07;;;;;;;31.42;28.50;;;16.50;88.40;;;;;;5073312;28;20025;-50
2023/09/27 08:01:37;;;;;;;27.27;24.67;;;16.80;88.60;;;;;;5065955;28;20063;-48
2023/09/27 08:04:12;;;;;;;;;;;16.90;88.20;;;;;;5086899;28;20111;-51
2023/09/27 08:06:47;;;;;;;28.92;26.23;;;16.90;87.60;;;;;;5093095;28;20310;-47
2023/09/27 08:09:16;;;;;;;28.00;25.23;;;16.90;86.60;;;;;;5087600;28;20115;-51
2023/09/27 08:11:43;;;;;;;27.33;24.83;;;17.10;87.00;;;;;;5072861;28;20095;-46
2023/09/27 08:14:11;;;;;;;28.58;25.98;;;17.20;86.50;;;;;;5087131;28;20024;-50
2023/09/27 08:16:39;;;;;;;28.45;25.92;;;17.30;86.10;;;;;;5093140;28;20456;-50
2023/09/27 08:19:09;;;;;;;25.10;22.67;;;17.30;85.90;;;;;;5075171;28;20028;-47
2023/09/27 08:21:35;;;;;;;27.23;24.80;;;17.30;85.90;;;;;;5055404;28;20016;-49
2023/09/27 08:24:03;;;;;;;24.92;22.65;;;17.30;85.80;;;;;;5087478;28;20093;-48
2023/09/27 08:26:32;;;;;;;31.05;28.23;;;17.40;86.40;;;;;;5091174;28;20085;-48
2023/09/27 08:29:01;;;;;;;28.65;25.85;;;17.60;86.00;;;;;;5073055;28;20118;-49
2023/09/27 08:31:30;;;;;;;28.25;25.77;;;18.00;86.60;;;;;;5072833;28;20058;-47
2023/09/27 08:33:57;;;;;;;25.23;22.85;;;18.30;84.30;;;;;;5056381;28;20039;-46
2023/09/27 08:36:24;;;;;;;24.67;22.13;;;18.60;84.60;;;;;;5086824;28;20358;-52
2023/09/27 08:38:51;;;;;;;24.10;21.98;;;18.70;83.50;;;;;;5092632;28;20377;-49
2023/09/27 08:41:23;;;;;;;26.58;24.13;;;18.70;82.60;;;;;;5092596;28;20048;-52
2023/09/27 08:43:51;;;;;;;25.85;23.55;;;18.50;82.30;;;;;;5065792;28;20059;-49
2023/09/27 08:46:25;;;;;;;25.17;22.77;;;18.40;83.20;;;;;;5055612;28;20021;-51
2023/09/27 08:48:57;;;;;;;25.48;23.05;;;18.10;83.40;;;;;;5072544;28;20044;-48
2023/09/27 08:51:26;;;;;;;24.65;22.48;;;18.00;83.90;;;;;;5073135;28;20032;-49
2023/09/27 08:53:57;;;;;;;21.75;19.85;;;17.90;84.40;;;;;;5081225;28;20099;-48
2023/09/27 08:56:24;;;;;;;23.17;21.08;;;17.90;84.90;;;;;;5092346;28;20024;-48
2023/09/27 08:58:51;;;;;;;29.63;26.75;;;17.90;85.50;;;;;;5091829;28;20077;-49
2023/09/27 09:01:18;;;;;;;26.08;23.67;;;17.90;85.40;;;;;;5092513;28;20050;-49
2023/09/27 09:03:48;;;;;;;26.30;23.98;;;18.00;86.00;;;;;;5069706;28;20051;-49
2023/09/27 09:06:18;;;;;;;30.48;27.60;;;18.00;85.90;;;;;;5072441;28;20081;-48
2023/09/27 09:08:46;;;;;;;29.63;26.85;;;18.20;85.80;;;;;;5079465;28;20039;-50
2023/09/27 09:11:18;;;;;;;25.83;23.17;;;18.50;85.60;;;;;;5111385;28;20450;-49
2023/09/27 09:14:04;;;;;;;24.90;22.67;;;18.90;84.60;;;;;;5102591;28;20115;-53
2023/09/27 09:16:47;;;;;;;22.13;20.13;;;19.30;84.00;;;;;;5072217;28;20453;-48
2023/09/27 09:19:25;;;;;;;24.27;21.92;;;19.50;83.10;;;;;;5056562;28;20111;-50
2023/09/27 09:22:02;;;;;;;24.00;21.85;;;19.80;82.30;;;;;;5052930;28;20084;-47
2023/09/27 09:24:32;;;;;;;21.17;19.13;;;19.90;81.00;;;;;;5072602;28;20028;-49
2023/09/27 09:27:26;;;;;;;22.60;20.20;;;20.20;81.40;;;;;;5056149;28;20048;-48
2023/09/27 09:29:53;;;;;;;19.52;17.45;;;20.30;79.10;;;;;;5061347;28;20021;-49
2023/09/27 09:32:31;;;;;;;21.02;18.90;;;20.40;79.60;;;;;;5075203;28;20115;-51
2023/09/27 09:35:00;;;;;;;20.90;18.95;;;20.40;80.10;;;;;;5058119;28;20409;-51
2023/09/27 09:37:47;;;;;;;21.67;19.50;;;20.40;80.60;;;;;;5076051;28;20334;-48
2023/09/27 09:40:19;;;;;;;20.10;18.27;;;20.40;80.20;;;;;;5058176;28;20089;-47
2023/09/27 09:42:52;;;;;;;21.27;19.35;;;20.60;80.70;;;;;;5074701;28;20037;-51
2023/09/27 09:45:19;;;;;;;22.58;20.30;;;20.60;79.70;;;;;;5075786;28;20021;-51
2023/09/27 09:47:46;;;;;;;21.33;19.15;;;20.80;79.30;;;;;;5076199;28;20493;-48
2023/09/27 09:50:18;;;;;;;22.88;20.77;;;20.90;79.30;;;;;;5075676;28;20036;-48
2023/09/27 09:52:57;;;;;;;22.50;20.50;;;21.00;78.90;;;;;;5042737;28;20032;-51
2023/09/27 09:55:26;;;;;;;20.80;18.80;;;21.00;78.60;;;;;;5075888;28;20035;-52
2023/09/27 09:58:20;;;;;;;18.98;17.00;;;21.30;79.40;;;;;;5076158;28;20458;-49
2023/09/27 10:01:01;;;;;;;22.55;20.13;;;21.40;78.50;;;;;;5075765;28;20040;-51
2023/09/27 10:03:33;;;;;;;21.20;19.00;;;21.20;78.70;;;;;;5057632;28;20128;-51
2023/09/27 10:06:04;;;;;;;20.23;18.42;;;21.30;78.10;;;;;;5057565;28;20035;-49
2023/09/27 10:08:38;;;;;;;20.40;18.65;;;21.40;79.20;;;;;;5058561;28;20126;-48
2023/09/27 10:11:23;;;;;;;22.27;17.02;;;21.40;79.70;;;;;;5075953;28;20028;-52
2023/09/27 10:13:56;;;;;;;20.13;16.45;;;21.50;77.60;;;;;;5075611;28;20041;-54
2023/09/27 10:16:27;;;;;;;19.70;17.67;;;21.80;78.70;;;;;;5057367;28;20040;-50
2023/09/27 10:19:05;;;;;;;16.33;14.70;;;21.90;77.10;;;;;;5074337;28;20128;-49
2023/09/27 10:21:34;;;;;;;18.65;16.35;;;22.10;77.90;;;;;;5075505;28;20098;-48
2023/09/27 10:24:02;;;;;;;17.58;15.98;;;22.20;76.50;;;;;;5076811;28;20039;-47
2023/09/27 10:26:33;;;;;;;19.77;17.77;;;22.20;75.90;;;;;;5095398;28;20069;-51
2023/09/27 10:29:18;;;;;;;17.75;16.05;;;22.20;76.40;;;;;;5095209;28;20356;-49
2023/09/27 10:32:01;;;;;;;18.05;16.17;;;21.90;74.80;;;;;;5090461;28;20031;-51
2023/09/27 10:34:30;;;;;;;18.45;16.48;;;21.80;75.70;;;;;;5075023;28;20017;-49
2023/09/27 10:37:00;;;;;;;18.58;16.67;;;21.80;77.60;;;;;;5075130;28;20372;-52
2023/09/27 10:39:27;;;;;;;17.15;15.35;;;21.70;75.80;;;;;;5040670;28;20025;-49
2023/09/27 10:41:56;;;;;;;17.23;14.82;;;21.60;76.50;;;;;;5040377;28;20131;-50
2023/09/27 10:44:30;;;;;;;;;;;21.60;77.10;;;;;;5075573;28;20071;-52
2023/09/27 10:47:00;;;;;;;16.15;14.40;;;21.70;77.10;;;;;;5056949;28;20226;-54
2023/09/27 10:49:33;;;;;;;17.90;15.95;;;21.90;78.80;;;;;;5073697;28;20120;-49
2023/09/27 10:52:02;;;;;;;22.23;18.60;;;21.90;77.10;;;;;;5074645;28;20446;-51
2023/09/27 10:54:33;;;;;;;22.73;19.13;;;21.70;75.90;;;;;;5074735;28;20021;-49
2023/09/27 10:57:12;;;;;;;18.63;16.92;;;21.60;76.10;;;;;;5074939;28;20054;-48
2023/09/27 10:59:41;;;;;;;18.83;16.92;;;21.40;77.10;;;;;;5057133;28;20025;-51
2023/09/27 11:02:11;;;;;;;17.27;15.48;;;21.40;77.80;;;;;;5074675;28;20036;-50
2023/09/27 11:04:38;;;;;;;16.27;14.68;;;21.50;78.60;;;;;;5074103;28;20484;-52
2023/09/27 11:07:04;;;;;;;18.60;16.70;;;21.60;79.00;;;;;;5074270;28;20103;-51
2023/09/27 11:09:33;;;;;;;15.05;13.55;;;21.60;77.30;;;;;;5074255;28;20158;-53
2023/09/27 11:12:00;;;;;;;15.85;14.38;;;21.80;77.70;;;;;;5057260;28;20016;-53
2023/09/27 11:14:47;;;;;;;18.70;15.05;;;21.90;78.10;;;;;;5074615;28;20370;-50
2023/09/27 11:17:17;;;;;;;17.27;15.45;;;22.00;77.70;;;;;;5073955;28;20028;-49
2023/09/27 11:19:44;;;;;;;14.05;12.68;;;22.10;76.40;;;;;;5074116;28;20025;-48
2023/09/27 11:22:12;;;;;;;17.95;16.13;;;22.30;76.60;;;;;;5056786;28;20111;-52
2023/09/27 11:24:40;;;;;;;16.38;14.77;;;22.40;75.60;;;;;;5074223;28;20538;-52
2023/09/27 11:27:07;;;;;;;18.23;16.45;;;22.50;76.20;;;;;;5056578;28;20633;-52
2023/09/27 11:29:34;;;;;;;16.83;15.10;;;22.40;74.00;;;;;;5043263;28;20028;-47
2023/09/27 11:32:05;;;;;;;17.55;14.18;;;22.40;74.40;;;;;;5076284;28;20028;-52
2023/09/27 11:34:32;;;;;;;18.73;14.30;;;22.40;74.80;;;;;;5093538;28;20056;-49
2023/09/27 11:37:02;;;;;;;17.67;12.20;;;22.30;75.00;;;;;;5093661;28;20016;-50
2023/09/27 11:40:00;;;;;;;14.65;12.57;;;22.40;74.70;;;;;;5086083;28;20174;-52
2023/09/27 11:42:27;;;;;;;15.43;13.82;;;22.40;74.00;;;;;;5073300;28;20086;-49
2023/09/27 11:45:13;;;;;;;15.43;12.73;;;22.20;74.60;;;;;;5073362;28;20072;-53
2023/09/27 11:47:58;;;;;;;14.60;11.32;;;22.10;75.20;;;;;;5054731;28;20028;-51
2023/09/27 11:50:26;;;;;;;12.23;10.98;;;22.00;75.70;;;;;;5071725;28;20028;-50
2023/09/27 11:52:54;;;;;;;11.27;9.13;;;21.90;74.70;;;;;;5073064;28;20029;-48
2023/09/27 11:55:20;;;;;;;10.43;9.40;;;21.80;75.00;;;;;;5073867;28;20028;-50
2023/09/27 11:57:46;;;;;;;12.07;9.07;;;21.80;75.20;;;;;;5073292;28;20208;-50
2023/09/27 12:00:15;;;;;;;22.30;10.93;;;21.90;76.30;;;;;;5073317;28;20043;-54
2023/09/27 12:02:45;;;;;;;12.23;10.02;;;22.10;76.40;;;;;;5073120;28;20043;-50
2023/09/27 12:05:13;;;;;;;10.82;8.32;;;22.20;76.60;;;;;;5073018;28;20067;-48
2023/09/27 12:07:39;;;;;;;9.32;8.38;;;22.30;74.90;;;;;;5072213;28;20058;-51
2023/09/27 12:10:09;;;;;;;11.20;9.35;;;22.30;74.30;;;;;;5073409;28;20519;-51
2023/09/27 12:12:40;;;;;;;11.07;9.73;;;22.40;75.20;;;;;;5073789;28;20040;-52
2023/09/27 12:15:07;;;;;;;12.13;8.27;;;22.40;73.80;;;;;;5055610;28;20040;-53
2023/09/27 12:17:33;;;;;;;10.18;9.15;;;22.60;75.60;;;;;;5073073;28;20028;-48
2023/09/27 12:20:03;;;;;;;10.82;8.15;;;22.60;73.40;;;;;;5073101;28;20036;-53
2023/09/27 12:22:32;;;;;;;14.05;8.52;;;22.50;72.60;;;;;;5067155;28;20105;-52
2023/09/27 12:25:00;;;;;;;9.95;8.27;;;22.30;72.80;;;;;;5075218;28;20028;-53
2023/09/27 12:27:27;;;;;;;10.57;7.63;;;22.30;72.90;;;;;;5093030;28;20028;-53
2023/09/27 12:29:55;;;;;;;11.07;7.68;;;22.30;72.80;;;;;;5088848;28;20335;-50
2023/09/27 12:32:22;;;;;;;9.55;6.97;;;22.40;73.10;;;;;;5073263;28;20354;-52
2023/09/27 12:34:51;;;;;;;9.88;7.15;;;22.60;72.70;;;;;;5072665;28;20090;-50
2023/09/27 12:37:18;;;;;;;8.52;6.18;;;22.90;71.90;;;;;;5073320;28;20036;-48
2023/09/27 12:39:50;;;;;;;9.27;7.47;;;23.10;71.30;;;;;;5055308;28;20037;-51